createdAt,value
2018-11-11T00:00:11.229Z,925.57
2018-11-11T00:00:24.274Z,925.55
2018-11-11T00:00:37.188Z,925.57
2018-11-11T00:00:50.187Z,925.57
2018-11-11T00:01:02.686Z,925.55
2018-11-11T00:01:15.651Z,925.59
2018-11-11T00:01:28.138Z,925.53
2018-11-11T00:01:40.653Z,925.58
2018-11-11T00:01:53.612Z,925.57
2018-11-11T00:02:06.545Z,925.6
2018-11-11T00:02:18.541Z,925.58
2018-11-11T00:02:31.028Z,925.58
2018-11-11T00:02:43.062Z,925.58
2018-11-11T00:02:55.679Z,925.57
2018-11-11T00:03:07.744Z,925.54
2018-11-11T00:03:20.239Z,925.56
2018-11-11T00:03:33.218Z,925.58
2018-11-11T00:03:46.171Z,925.57
2018-11-11T00:03:59.051Z,925.59
2018-11-11T00:04:12.000Z,925.58
2018-11-11T00:04:25.028Z,925.61
2018-11-11T00:04:37.494Z,925.6
2018-11-11T00:04:49.586Z,925.61
2018-11-11T00:05:02.065Z,925.61
2018-11-11T00:05:14.108Z,925.57
2018-11-11T00:05:27.117Z,925.6
2018-11-11T00:05:39.167Z,925.56
2018-11-11T00:05:52.182Z,925.62
2018-11-11T00:06:05.134Z,925.57
2018-11-11T00:06:18.853Z,925.6
2018-11-11T00:06:31.371Z,925.6
2018-11-11T00:06:43.412Z,925.56
2018-11-11T00:06:55.951Z,925.59
2018-11-11T00:07:07.970Z,925.6
2018-11-11T00:07:20.986Z,925.63
2018-11-11T00:07:33.971Z,925.58
2018-11-11T00:07:46.067Z,925.64
2018-11-11T00:07:58.559Z,925.63
2018-11-11T00:08:11.566Z,925.6
2018-11-11T00:08:24.551Z,925.64
2018-11-11T00:08:37.082Z,925.64
2018-11-11T00:08:49.124Z,925.59
2018-11-11T00:09:01.554Z,925.62
2018-11-11T00:09:13.985Z,925.61
2018-11-11T00:09:26.962Z,925.64
2018-11-11T00:09:39.435Z,925.61
2018-11-11T00:09:51.986Z,925.62
2018-11-11T00:10:04.939Z,925.64
2018-11-11T00:10:17.885Z,925.65
2018-11-11T00:10:29.898Z,925.66
2018-11-11T00:10:42.415Z,925.63
2018-11-11T00:10:54.920Z,925.61
2018-11-11T00:11:07.912Z,925.62
2018-11-11T00:11:20.447Z,925.66
2018-11-11T00:11:33.452Z,925.68
2018-11-11T00:11:45.952Z,925.64
2018-11-11T00:11:58.502Z,925.62
2018-11-11T00:12:10.599Z,925.63
2018-11-11T00:12:23.079Z,925.63
2018-11-11T00:12:35.603Z,925.64
2018-11-11T00:12:48.601Z,925.65
2018-11-11T00:13:01.127Z,925.6
2018-11-11T00:13:14.116Z,925.61
2018-11-11T00:13:27.014Z,925.63
2018-11-11T00:13:39.490Z,925.63
2018-11-11T00:13:52.451Z,925.63
2018-11-11T00:14:05.003Z,925.58
2018-11-11T00:14:17.465Z,925.6
2018-11-11T00:14:29.474Z,925.6
2018-11-11T00:14:42.442Z,925.58
2018-11-11T00:14:55.488Z,925.6
2018-11-11T00:15:08.040Z,925.62
2018-11-11T00:15:21.093Z,925.58
2018-11-11T00:15:33.539Z,925.55
2018-11-11T00:15:46.083Z,925.58
2018-11-11T00:15:58.593Z,925.59
2018-11-11T00:16:11.101Z,925.57
2018-11-11T00:16:23.718Z,925.57
2018-11-11T00:16:36.653Z,925.59
2018-11-11T00:16:49.605Z,925.56
2018-11-11T00:17:02.597Z,925.55
2018-11-11T00:17:13.766Z,925.53
2018-11-11T00:17:26.245Z,925.57
2018-11-11T00:17:39.226Z,925.56
2018-11-11T00:17:52.181Z,925.61
2018-11-11T00:18:04.623Z,925.58
2018-11-11T00:18:16.164Z,925.59
2018-11-11T00:18:29.150Z,925.56
2018-11-11T00:18:41.717Z,925.62
2018-11-11T00:18:54.257Z,925.61
2018-11-11T00:19:06.330Z,925.56
2018-11-11T00:19:19.270Z,925.56
2018-11-11T00:19:31.705Z,925.56
2018-11-11T00:19:43.780Z,925.6
2018-11-11T00:19:56.301Z,925.59
2018-11-11T00:20:08.835Z,925.6
2018-11-11T00:20:21.822Z,925.61
2018-11-11T00:20:34.800Z,925.61
2018-11-11T00:20:47.799Z,925.63
2018-11-11T00:20:59.884Z,925.58
2018-11-11T00:21:12.411Z,925.59
2018-11-11T00:21:26.061Z,925.62
2018-11-11T00:21:39.330Z,925.63
2018-11-11T00:21:52.955Z,925.62
2018-11-11T00:22:05.945Z,925.6
2018-11-11T00:22:18.956Z,925.63
2018-11-11T00:22:31.682Z,925.65
2018-11-11T00:22:43.731Z,925.67
2018-11-11T00:22:56.286Z,925.66
2018-11-11T00:23:08.799Z,925.67
2018-11-11T00:23:21.267Z,925.63
2018-11-11T00:23:34.274Z,925.59
2018-11-11T00:23:47.281Z,925.63
2018-11-11T00:23:59.808Z,925.66
2018-11-11T00:24:12.762Z,925.63
2018-11-11T00:24:25.320Z,925.62
2018-11-11T00:24:38.315Z,925.63
2018-11-11T00:24:51.339Z,925.65
2018-11-11T00:25:04.294Z,925.64
2018-11-11T00:25:16.795Z,925.64
2018-11-11T00:25:29.345Z,925.65
2018-11-11T00:25:41.838Z,925.64
2018-11-11T00:25:54.795Z,925.61
2018-11-11T00:26:07.260Z,925.62
2018-11-11T00:26:20.204Z,925.63
2018-11-11T00:26:31.747Z,925.63
2018-11-11T00:26:43.802Z,925.61
2018-11-11T00:26:56.307Z,925.59
2018-11-11T00:27:07.890Z,925.59
2018-11-11T00:27:20.881Z,925.58
2018-11-11T00:27:33.847Z,925.58
2018-11-11T00:27:46.854Z,925.56
2018-11-11T00:27:59.850Z,925.58
2018-11-11T00:28:12.370Z,925.58
2018-11-11T00:28:24.502Z,925.6
2018-11-11T00:28:37.331Z,925.6
2018-11-11T00:28:50.603Z,925.56
2018-11-11T00:29:03.626Z,925.54
2018-11-11T00:29:16.164Z,925.58
2018-11-11T00:29:28.652Z,925.62
2018-11-11T00:29:40.246Z,925.58
2018-11-11T00:29:52.767Z,925.63
2018-11-11T00:30:04.829Z,925.61
2018-11-11T00:30:17.854Z,925.62
2018-11-11T00:30:30.397Z,925.57
2018-11-11T00:30:42.923Z,925.61
2018-11-11T00:30:55.875Z,925.61
2018-11-11T00:31:08.415Z,925.59
2018-11-11T00:31:20.948Z,925.64
2018-11-11T00:31:33.916Z,925.61
2018-11-11T00:31:46.424Z,925.6
2018-11-11T00:31:59.406Z,925.62
2018-11-11T00:32:11.904Z,925.62
2018-11-11T00:32:24.821Z,925.63
2018-11-11T00:32:37.361Z,925.62
2018-11-11T00:32:50.385Z,925.6
2018-11-11T00:33:03.402Z,925.66
2018-11-11T00:33:15.982Z,925.61
2018-11-11T00:33:28.998Z,925.65
2018-11-11T00:33:41.025Z,925.65
2018-11-11T00:33:53.572Z,925.65
2018-11-11T00:34:06.518Z,925.65
2018-11-11T00:34:19.556Z,925.65
2018-11-11T00:34:31.566Z,925.66
2018-11-11T00:34:44.549Z,925.64
2018-11-11T00:34:57.075Z,925.66
2018-11-11T00:35:10.054Z,925.64
2018-11-11T00:35:22.605Z,925.64
2018-11-11T00:35:35.161Z,925.63
2018-11-11T00:35:47.200Z,925.64
2018-11-11T00:36:00.172Z,925.68
2018-11-11T00:36:12.745Z,925.69
2018-11-11T00:36:26.707Z,925.66
2018-11-11T00:36:39.256Z,925.67
2018-11-11T00:36:51.820Z,925.68
2018-11-11T00:37:04.395Z,925.66
2018-11-11T00:37:16.509Z,925.67
2018-11-11T00:37:29.051Z,925.67
2018-11-11T00:37:41.608Z,925.68
2018-11-11T00:37:54.538Z,925.7
2018-11-11T00:38:07.489Z,925.64
2018-11-11T00:38:20.493Z,925.71
2018-11-11T00:38:33.019Z,925.7
2018-11-11T00:38:46.068Z,925.73
2018-11-11T00:38:58.584Z,925.7
2018-11-11T00:39:10.661Z,925.69
2018-11-11T00:39:23.347Z,925.7
2018-11-11T00:39:36.818Z,925.69
2018-11-11T00:39:50.377Z,925.73
2018-11-11T00:40:03.458Z,925.73
2018-11-11T00:40:15.488Z,925.7
2018-11-11T00:40:28.433Z,925.73
2018-11-11T00:40:40.938Z,925.72
2018-11-11T00:40:53.887Z,925.7
2018-11-11T00:41:06.440Z,925.69
2018-11-11T00:41:18.507Z,925.7
2018-11-11T00:41:30.964Z,925.74
2018-11-11T00:41:42.975Z,925.73
2018-11-11T00:41:55.931Z,925.71
2018-11-11T00:42:08.977Z,925.71
2018-11-11T00:42:20.601Z,925.71
2018-11-11T00:42:33.591Z,925.72
2018-11-11T00:42:45.149Z,925.73
2018-11-11T00:42:57.666Z,925.73
2018-11-11T00:43:10.185Z,925.71
2018-11-11T00:43:23.201Z,925.69
2018-11-11T00:43:35.232Z,925.71
2018-11-11T00:43:48.213Z,925.69
2018-11-11T00:44:01.169Z,925.7
2018-11-11T00:44:13.268Z,925.7
2018-11-11T00:44:26.267Z,925.72
2018-11-11T00:44:37.813Z,925.69
2018-11-11T00:44:50.810Z,925.68
2018-11-11T00:45:03.334Z,925.68
2018-11-11T00:45:15.869Z,925.7
2018-11-11T00:45:28.872Z,925.67
2018-11-11T00:45:41.885Z,925.65
2018-11-11T00:45:54.845Z,925.68
2018-11-11T00:46:06.918Z,925.69
2018-11-11T00:46:19.374Z,925.69
2018-11-11T00:46:32.331Z,925.7
2018-11-11T00:46:44.331Z,925.71
2018-11-11T00:46:56.887Z,925.71
2018-11-11T00:47:09.900Z,925.7
2018-11-11T00:47:22.413Z,925.71
2018-11-11T00:47:34.905Z,925.68
2018-11-11T00:47:47.876Z,925.7
2018-11-11T00:48:00.861Z,925.71
2018-11-11T00:48:13.323Z,925.71
2018-11-11T00:48:26.289Z,925.73
2018-11-11T00:48:39.313Z,925.72
2018-11-11T00:48:51.316Z,925.74
2018-11-11T00:49:03.385Z,925.71
2018-11-11T00:49:15.420Z,925.73
2018-11-11T00:49:27.902Z,925.73
2018-11-11T00:49:40.806Z,925.73
2018-11-11T00:49:53.317Z,925.73
2018-11-11T00:50:06.331Z,925.75
2018-11-11T00:50:18.875Z,925.73
2018-11-11T00:50:30.928Z,925.76
2018-11-11T00:50:42.507Z,925.73
2018-11-11T00:50:55.091Z,925.78
2018-11-11T00:51:07.624Z,925.74
2018-11-11T00:51:20.183Z,925.72
2018-11-11T00:51:32.928Z,925.72
2018-11-11T00:51:45.964Z,925.74
2018-11-11T00:51:58.482Z,925.74
2018-11-11T00:52:10.967Z,925.76
2018-11-11T00:52:23.970Z,925.72
2018-11-11T00:52:36.586Z,925.74
2018-11-11T00:52:49.570Z,925.76
2018-11-11T00:53:01.665Z,925.74
2018-11-11T00:53:13.760Z,925.74
2018-11-11T00:53:26.705Z,925.73
2018-11-11T00:53:39.733Z,925.73
2018-11-11T00:53:51.771Z,925.75
2018-11-11T00:54:04.746Z,925.73
2018-11-11T00:54:17.680Z,925.73
2018-11-11T00:54:29.708Z,925.73
2018-11-11T00:54:42.241Z,925.7
2018-11-11T00:54:54.740Z,925.72
2018-11-11T00:55:06.362Z,925.73
2018-11-11T00:55:18.845Z,925.69
2018-11-11T00:55:31.837Z,925.72
2018-11-11T00:55:43.359Z,925.71
2018-11-11T00:55:56.275Z,925.7
2018-11-11T00:56:08.313Z,925.68
2018-11-11T00:56:21.275Z,925.67
2018-11-11T00:56:34.266Z,925.69
2018-11-11T00:56:46.341Z,925.7
2018-11-11T00:56:59.336Z,925.69
2018-11-11T00:57:11.841Z,925.68
2018-11-11T00:57:23.883Z,925.68
2018-11-11T00:57:36.794Z,925.7
2018-11-11T00:57:49.295Z,925.68
2018-11-11T00:58:02.202Z,925.69
2018-11-11T00:58:15.145Z,925.71
2018-11-11T00:58:28.136Z,925.71
2018-11-11T00:58:40.612Z,925.7
2018-11-11T00:58:53.564Z,925.7
2018-11-11T00:59:06.062Z,925.68
2018-11-11T00:59:18.066Z,925.67
2018-11-11T00:59:31.070Z,925.66
2018-11-11T00:59:44.052Z,925.69
2018-11-11T00:59:56.604Z,925.64
2018-11-11T01:00:09.551Z,925.66
2018-11-11T01:00:22.053Z,925.68
2018-11-11T01:00:35.126Z,925.68
2018-11-11T01:00:48.109Z,925.65
2018-11-11T01:01:00.666Z,925.69
2018-11-11T01:01:13.198Z,925.68
2018-11-11T01:01:25.217Z,925.7
2018-11-11T01:01:38.199Z,925.67
2018-11-11T01:01:51.137Z,925.7
2018-11-11T01:02:04.046Z,925.7
2018-11-11T01:02:17.015Z,925.68
2018-11-11T01:02:30.001Z,925.68
2018-11-11T01:02:42.022Z,925.72
2018-11-11T01:02:54.130Z,925.67
2018-11-11T01:03:06.172Z,925.69
2018-11-11T01:03:18.644Z,925.69
2018-11-11T01:03:31.097Z,925.71
2018-11-11T01:03:44.135Z,925.7
2018-11-11T01:03:56.173Z,925.69
2018-11-11T01:04:08.690Z,925.69
2018-11-11T01:04:21.200Z,925.69
2018-11-11T01:04:33.706Z,925.71
2018-11-11T01:04:46.652Z,925.69
2018-11-11T01:04:59.125Z,925.72
2018-11-11T01:05:10.708Z,925.72
2018-11-11T01:05:23.197Z,925.71
2018-11-11T01:05:35.717Z,925.72
2018-11-11T01:05:48.235Z,925.73
2018-11-11T01:06:01.178Z,925.72
2018-11-11T01:06:13.684Z,925.72
2018-11-11T01:06:26.136Z,925.76
2018-11-11T01:06:39.334Z,925.72
2018-11-11T01:06:51.827Z,925.76
2018-11-11T01:07:04.375Z,925.77
2018-11-11T01:07:16.885Z,925.77
2018-11-11T01:07:29.398Z,925.77
2018-11-11T01:07:41.932Z,925.74
2018-11-11T01:07:55.060Z,925.73
2018-11-11T01:08:07.111Z,925.74
2018-11-11T01:08:18.704Z,925.75
2018-11-11T01:08:31.661Z,925.74
2018-11-11T01:08:44.269Z,925.75
2018-11-11T01:08:56.752Z,925.74
2018-11-11T01:09:08.795Z,925.77
2018-11-11T01:09:21.773Z,925.75
2018-11-11T01:09:33.787Z,925.71
2018-11-11T01:09:46.290Z,925.74
2018-11-11T01:09:58.761Z,925.74
2018-11-11T01:10:11.722Z,925.77
2018-11-11T01:10:24.691Z,925.77
2018-11-11T01:10:36.716Z,925.76
2018-11-11T01:10:49.237Z,925.77
2018-11-11T01:11:02.171Z,925.79
2018-11-11T01:11:14.654Z,925.79
2018-11-11T01:11:27.111Z,925.76
2018-11-11T01:11:39.637Z,925.76
2018-11-11T01:11:51.654Z,925.8
2018-11-11T01:12:03.758Z,925.8
2018-11-11T01:12:17.363Z,925.79
2018-11-11T01:12:30.637Z,925.83
2018-11-11T01:12:43.126Z,925.78
2018-11-11T01:12:55.165Z,925.81
2018-11-11T01:13:07.166Z,925.82
2018-11-11T01:13:20.121Z,925.81
2018-11-11T01:13:33.108Z,925.82
2018-11-11T01:13:45.152Z,925.83
2018-11-11T01:13:57.144Z,925.82
2018-11-11T01:14:10.071Z,925.82
2018-11-11T01:14:22.139Z,925.83
2018-11-11T01:14:34.635Z,925.84
2018-11-11T01:14:47.198Z,925.83
2018-11-11T01:14:59.746Z,925.85
2018-11-11T01:15:12.245Z,925.82
2018-11-11T01:15:25.164Z,925.83
2018-11-11T01:15:37.634Z,925.81
2018-11-11T01:15:50.145Z,925.82
2018-11-11T01:16:02.206Z,925.83
2018-11-11T01:16:14.751Z,925.8
2018-11-11T01:16:27.262Z,925.83
2018-11-11T01:16:40.289Z,925.83
2018-11-11T01:16:52.805Z,925.84
2018-11-11T01:17:05.800Z,925.84
2018-11-11T01:17:18.303Z,925.84
2018-11-11T01:17:30.836Z,925.82
2018-11-11T01:17:43.365Z,925.8
2018-11-11T01:17:55.874Z,925.82
2018-11-11T01:18:08.477Z,925.82
2018-11-11T01:18:21.455Z,925.85
2018-11-11T01:18:34.012Z,925.82
2018-11-11T01:18:47.010Z,925.85
2018-11-11T01:18:59.533Z,925.83
2018-11-11T01:19:12.580Z,925.78
2018-11-11T01:19:25.083Z,925.84
2018-11-11T01:19:38.117Z,925.86
2018-11-11T01:19:50.269Z,925.83
2018-11-11T01:20:02.796Z,925.82
2018-11-11T01:20:15.918Z,925.87
2018-11-11T01:20:28.955Z,925.84
2018-11-11T01:20:41.485Z,925.89
2018-11-11T01:20:54.465Z,925.86
2018-11-11T01:21:06.967Z,925.87
2018-11-11T01:21:19.488Z,925.86
2018-11-11T01:21:32.426Z,925.87
2018-11-11T01:21:46.092Z,925.86
2018-11-11T01:21:58.138Z,925.86
2018-11-11T01:22:10.195Z,925.89
2018-11-11T01:22:22.704Z,925.89
2018-11-11T01:22:35.666Z,925.89
2018-11-11T01:22:48.649Z,925.87
2018-11-11T01:23:01.598Z,925.88
2018-11-11T01:23:13.631Z,925.89
2018-11-11T01:23:26.111Z,925.91
2018-11-11T01:23:38.613Z,925.88
2018-11-11T01:23:51.627Z,925.89
2018-11-11T01:24:04.179Z,925.88
2018-11-11T01:24:16.717Z,925.87
2018-11-11T01:24:29.251Z,925.88
2018-11-11T01:24:42.240Z,925.86
2018-11-11T01:24:55.224Z,925.87
2018-11-11T01:25:06.786Z,925.88
2018-11-11T01:25:18.904Z,925.89
2018-11-11T01:25:31.859Z,925.88
2018-11-11T01:25:44.840Z,925.89
2018-11-11T01:25:57.823Z,925.9
2018-11-11T01:26:10.385Z,925.85
2018-11-11T01:26:23.423Z,925.87
2018-11-11T01:26:35.482Z,925.87
2018-11-11T01:26:48.008Z,925.85
2018-11-11T01:27:00.923Z,925.9
2018-11-11T01:27:12.981Z,925.87
2018-11-11T01:27:25.503Z,925.86
2018-11-11T01:27:37.564Z,925.91
2018-11-11T01:27:50.101Z,925.84
2018-11-11T01:28:02.657Z,925.85
2018-11-11T01:28:15.161Z,925.86
2018-11-11T01:28:28.125Z,925.88
2018-11-11T01:28:41.095Z,925.88
2018-11-11T01:28:53.581Z,925.88
2018-11-11T01:29:06.149Z,925.86
2018-11-11T01:29:19.204Z,925.85
2018-11-11T01:29:32.290Z,925.84
2018-11-11T01:29:45.284Z,925.86
2018-11-11T01:29:57.797Z,925.85
2018-11-11T01:30:10.305Z,925.83
2018-11-11T01:30:23.350Z,925.85
2018-11-11T01:30:36.349Z,925.83
2018-11-11T01:30:48.433Z,925.86
2018-11-11T01:31:01.027Z,925.86
2018-11-11T01:31:13.993Z,925.87
2018-11-11T01:31:26.930Z,925.86
2018-11-11T01:31:39.462Z,925.83
2018-11-11T01:31:51.960Z,925.86
2018-11-11T01:32:04.437Z,925.89
2018-11-11T01:32:16.973Z,925.87
2018-11-11T01:32:28.990Z,925.84
2018-11-11T01:32:41.958Z,925.85
2018-11-11T01:32:54.989Z,925.85
2018-11-11T01:33:07.508Z,925.86
2018-11-11T01:33:20.057Z,925.87
2018-11-11T01:33:32.577Z,925.89
2018-11-11T01:33:45.562Z,925.86
2018-11-11T01:33:58.577Z,925.88
2018-11-11T01:34:10.621Z,925.86
2018-11-11T01:34:23.133Z,925.87
2018-11-11T01:34:35.650Z,925.84
2018-11-11T01:34:47.731Z,925.89
2018-11-11T01:35:00.260Z,925.88
2018-11-11T01:35:12.818Z,925.9
2018-11-11T01:35:25.804Z,925.91
2018-11-11T01:35:38.267Z,925.86
2018-11-11T01:35:50.781Z,925.9
2018-11-11T01:36:02.834Z,925.85
2018-11-11T01:36:14.880Z,925.86
2018-11-11T01:36:27.377Z,925.86
2018-11-11T01:36:40.085Z,925.86
2018-11-11T01:36:53.086Z,925.86
2018-11-11T01:37:05.610Z,925.87
2018-11-11T01:37:18.120Z,925.86
2018-11-11T01:37:30.660Z,925.84
2018-11-11T01:37:43.557Z,925.8
2018-11-11T01:37:56.514Z,925.85
2018-11-11T01:38:09.057Z,925.84
2018-11-11T01:38:22.024Z,925.82
2018-11-11T01:38:34.778Z,925.81
2018-11-11T01:38:46.875Z,925.83
2018-11-11T01:38:59.806Z,925.82
2018-11-11T01:39:12.282Z,925.86
2018-11-11T01:39:25.263Z,925.83
2018-11-11T01:39:37.851Z,925.84
2018-11-11T01:39:50.340Z,925.85
2018-11-11T01:40:03.356Z,925.84
2018-11-11T01:40:14.980Z,925.85
2018-11-11T01:40:27.943Z,925.86
2018-11-11T01:40:40.933Z,925.87
2018-11-11T01:40:53.530Z,925.88
2018-11-11T01:41:06.015Z,925.88
2018-11-11T01:41:18.517Z,925.87
2018-11-11T01:41:31.527Z,925.84
2018-11-11T01:41:44.511Z,925.87
2018-11-11T01:41:57.569Z,925.86
2018-11-11T01:42:09.565Z,925.88
2018-11-11T01:42:21.605Z,925.82
2018-11-11T01:42:34.156Z,925.82
2018-11-11T01:42:47.168Z,925.81
2018-11-11T01:42:59.178Z,925.83
2018-11-11T01:43:11.757Z,925.83
2018-11-11T01:43:24.292Z,925.81
2018-11-11T01:43:36.337Z,925.82
2018-11-11T01:43:49.292Z,925.8
2018-11-11T01:44:01.793Z,925.86
2018-11-11T01:44:14.322Z,925.8
2018-11-11T01:44:26.886Z,925.82
2018-11-11T01:44:39.826Z,925.82
2018-11-11T01:44:52.801Z,925.8
2018-11-11T01:45:05.345Z,925.82
2018-11-11T01:45:17.867Z,925.82
2018-11-11T01:45:30.865Z,925.8
2018-11-11T01:45:43.388Z,925.81
2018-11-11T01:45:55.893Z,925.81
2018-11-11T01:46:08.399Z,925.8
2018-11-11T01:46:21.349Z,925.8
2018-11-11T01:46:34.310Z,925.78
2018-11-11T01:46:46.849Z,925.78
2018-11-11T01:46:59.810Z,925.8
2018-11-11T01:47:12.307Z,925.77
2018-11-11T01:47:25.323Z,925.79
2018-11-11T01:47:37.809Z,925.76
2018-11-11T01:47:50.391Z,925.82
2018-11-11T01:48:03.316Z,925.8
2018-11-11T01:48:15.834Z,925.79
2018-11-11T01:48:28.321Z,925.79
2018-11-11T01:48:41.300Z,925.81
2018-11-11T01:48:53.847Z,925.81
2018-11-11T01:49:05.894Z,925.79
2018-11-11T01:49:18.874Z,925.74
2018-11-11T01:49:30.932Z,925.78
2018-11-11T01:49:43.881Z,925.77
2018-11-11T01:49:56.344Z,925.8
2018-11-11T01:50:07.937Z,925.8
2018-11-11T01:50:20.897Z,925.81
2018-11-11T01:50:33.974Z,925.77
2018-11-11T01:50:46.445Z,925.79
2018-11-11T01:50:58.979Z,925.79
2018-11-11T01:51:11.466Z,925.78
2018-11-11T01:51:24.464Z,925.8
2018-11-11T01:51:36.997Z,925.77
2018-11-11T01:51:49.055Z,925.8
2018-11-11T01:52:03.060Z,925.79
2018-11-11T01:52:15.571Z,925.79
2018-11-11T01:52:28.039Z,925.78
2018-11-11T01:52:40.946Z,925.78
2018-11-11T01:52:53.377Z,925.77
2018-11-11T01:53:05.430Z,925.78
2018-11-11T01:53:18.389Z,925.76
2018-11-11T01:53:30.902Z,925.76
2018-11-11T01:53:43.012Z,925.78
2018-11-11T01:53:55.983Z,925.78
2018-11-11T01:54:07.975Z,925.77
2018-11-11T01:54:20.966Z,925.81
2018-11-11T01:54:33.043Z,925.75
2018-11-11T01:54:46.039Z,925.79
2018-11-11T01:54:58.516Z,925.8
2018-11-11T01:55:11.445Z,925.79
2018-11-11T01:55:24.393Z,925.79
2018-11-11T01:55:37.383Z,925.76
2018-11-11T01:55:50.383Z,925.78
2018-11-11T01:56:02.413Z,925.75
2018-11-11T01:56:15.348Z,925.81
2018-11-11T01:56:27.876Z,925.75
2018-11-11T01:56:40.798Z,925.78
2018-11-11T01:56:53.784Z,925.77
2018-11-11T01:57:06.274Z,925.74
2018-11-11T01:57:18.798Z,925.75
2018-11-11T01:57:31.739Z,925.72
2018-11-11T01:57:44.709Z,925.75
2018-11-11T01:57:57.218Z,925.73
2018-11-11T01:58:09.673Z,925.75
2018-11-11T01:58:21.688Z,925.79
2018-11-11T01:58:34.213Z,925.74
2018-11-11T01:58:47.197Z,925.7
2018-11-11T01:58:59.726Z,925.75
2018-11-11T01:59:11.744Z,925.71
2018-11-11T01:59:24.736Z,925.77
2018-11-11T01:59:37.246Z,925.72
2018-11-11T01:59:49.736Z,925.68
2018-11-11T02:00:02.243Z,925.71
2018-11-11T02:00:14.771Z,925.7
2018-11-11T02:00:27.747Z,925.69
2018-11-11T02:00:40.174Z,925.71
2018-11-11T02:00:53.079Z,925.73
2018-11-11T02:01:05.572Z,925.67
2018-11-11T02:01:18.175Z,925.71
2018-11-11T02:01:31.113Z,925.66
2018-11-11T02:01:44.081Z,925.7
2018-11-11T02:01:56.612Z,925.69
2018-11-11T02:02:09.568Z,925.68
2018-11-11T02:02:22.517Z,925.67
2018-11-11T02:02:34.541Z,925.68
2018-11-11T02:02:47.090Z,925.65
2018-11-11T02:03:00.102Z,925.69
2018-11-11T02:03:13.078Z,925.66
2018-11-11T02:03:25.590Z,925.68
2018-11-11T02:03:38.568Z,925.67
2018-11-11T02:03:51.119Z,925.66
2018-11-11T02:04:04.083Z,925.67
2018-11-11T02:04:16.097Z,925.66
2018-11-11T02:04:28.184Z,925.63
2018-11-11T02:04:40.701Z,925.64
2018-11-11T02:04:53.702Z,925.62
2018-11-11T02:05:06.392Z,925.68
2018-11-11T02:05:18.896Z,925.65
2018-11-11T02:05:31.896Z,925.64
2018-11-11T02:05:44.880Z,925.63
2018-11-11T02:05:57.821Z,925.64
2018-11-11T02:06:10.744Z,925.64
2018-11-11T02:06:23.660Z,925.62
2018-11-11T02:06:35.657Z,925.71
2018-11-11T02:06:48.199Z,925.67
2018-11-11T02:07:01.814Z,925.69
2018-11-11T02:07:14.793Z,925.69
2018-11-11T02:07:27.287Z,925.7
2018-11-11T02:07:40.239Z,925.68
2018-11-11T02:07:53.159Z,925.66
2018-11-11T02:08:05.679Z,925.68
2018-11-11T02:08:18.725Z,925.66
2018-11-11T02:08:31.703Z,925.67
2018-11-11T02:08:43.710Z,925.66
2018-11-11T02:08:56.692Z,925.68
2018-11-11T02:09:09.144Z,925.62
2018-11-11T02:09:22.163Z,925.68
2018-11-11T02:09:35.238Z,925.65
2018-11-11T02:09:46.975Z,925.71
2018-11-11T02:10:00.101Z,925.73
2018-11-11T02:10:12.137Z,925.69
2018-11-11T02:10:24.656Z,925.68
2018-11-11T02:10:37.191Z,925.66
2018-11-11T02:10:50.162Z,925.69
2018-11-11T02:11:02.165Z,925.7
2018-11-11T02:11:15.150Z,925.71
2018-11-11T02:11:28.118Z,925.71
2018-11-11T02:11:41.080Z,925.74
2018-11-11T02:11:54.020Z,925.72
2018-11-11T02:12:06.617Z,925.77
2018-11-11T02:12:18.708Z,925.75
2018-11-11T02:12:31.660Z,925.73
2018-11-11T02:12:44.241Z,925.74
2018-11-11T02:12:56.736Z,925.7
2018-11-11T02:13:09.270Z,925.72
2018-11-11T02:13:21.832Z,925.75
2018-11-11T02:13:34.784Z,925.72
2018-11-11T02:13:47.262Z,925.74
2018-11-11T02:13:59.744Z,925.72
2018-11-11T02:14:12.204Z,925.74
2018-11-11T02:14:25.187Z,925.74
2018-11-11T02:14:37.276Z,925.72
2018-11-11T02:14:49.337Z,925.73
2018-11-11T02:15:02.308Z,925.68
2018-11-11T02:15:14.865Z,925.71
2018-11-11T02:15:27.415Z,925.71
2018-11-11T02:15:40.394Z,925.71
2018-11-11T02:15:52.882Z,925.71
2018-11-11T02:16:05.393Z,925.7
2018-11-11T02:16:17.456Z,925.67
2018-11-11T02:16:30.158Z,925.7
2018-11-11T02:16:42.665Z,925.71
2018-11-11T02:16:55.194Z,925.71
2018-11-11T02:17:07.359Z,925.73
2018-11-11T02:17:20.403Z,925.73
2018-11-11T02:17:33.399Z,925.72
2018-11-11T02:17:46.361Z,925.71
2018-11-11T02:17:59.302Z,925.72
2018-11-11T02:18:11.352Z,925.73
2018-11-11T02:18:23.834Z,925.76
2018-11-11T02:18:36.411Z,925.8
2018-11-11T02:18:49.429Z,925.77
2018-11-11T02:19:01.465Z,925.74
2018-11-11T02:19:14.409Z,925.74
2018-11-11T02:19:27.381Z,925.78
2018-11-11T02:19:39.998Z,925.77
2018-11-11T02:19:52.986Z,925.76
2018-11-11T02:20:05.501Z,925.75
2018-11-11T02:20:17.545Z,925.76
2018-11-11T02:20:30.038Z,925.73
2018-11-11T02:20:42.120Z,925.75
2018-11-11T02:20:55.225Z,925.76
2018-11-11T02:21:08.174Z,925.77
2018-11-11T02:21:21.781Z,925.69
2018-11-11T02:21:35.052Z,925.71
2018-11-11T02:21:49.028Z,925.72
2018-11-11T02:22:00.939Z,925.74
2018-11-11T02:22:13.868Z,925.78
2018-11-11T02:22:26.517Z,925.77
2018-11-11T02:22:39.558Z,925.74
2018-11-11T02:22:51.645Z,925.76
2018-11-11T02:23:04.831Z,925.76
2018-11-11T02:23:17.323Z,925.78
2018-11-11T02:23:29.850Z,925.79
2018-11-11T02:23:42.792Z,925.76
2018-11-11T02:23:55.461Z,925.74
2018-11-11T02:24:07.908Z,925.78
2018-11-11T02:24:20.448Z,925.77
2018-11-11T02:24:33.028Z,925.78
2018-11-11T02:24:45.639Z,925.72
2018-11-11T02:24:58.105Z,925.76
2018-11-11T02:25:10.644Z,925.76
2018-11-11T02:25:23.613Z,925.73
2018-11-11T02:25:36.116Z,925.73
2018-11-11T02:25:49.132Z,925.71
2018-11-11T02:26:02.080Z,925.71
2018-11-11T02:26:14.583Z,925.72
2018-11-11T02:26:27.167Z,925.67
2018-11-11T02:26:40.198Z,925.68
2018-11-11T02:26:52.758Z,925.67
2018-11-11T02:27:05.688Z,925.67
2018-11-11T02:27:18.518Z,925.67
2018-11-11T02:27:31.525Z,925.61
2018-11-11T02:27:44.051Z,925.64
2018-11-11T02:27:56.585Z,925.65
2018-11-11T02:28:09.126Z,925.64
2018-11-11T02:28:21.206Z,925.63
2018-11-11T02:28:33.266Z,925.63
2018-11-11T02:28:45.758Z,925.63
2018-11-11T02:28:58.690Z,925.65
2018-11-11T02:29:11.179Z,925.63
2018-11-11T02:29:23.226Z,925.65
2018-11-11T02:29:36.219Z,925.62
2018-11-11T02:29:49.309Z,925.64
2018-11-11T02:30:02.335Z,925.66
2018-11-11T02:30:14.402Z,925.61
2018-11-11T02:30:26.901Z,925.63
2018-11-11T02:30:39.895Z,925.62
2018-11-11T02:30:52.556Z,925.62
2018-11-11T02:31:05.540Z,925.64
2018-11-11T02:31:17.995Z,925.64
2018-11-11T02:31:30.950Z,925.62
2018-11-11T02:31:43.946Z,925.6
2018-11-11T02:31:57.013Z,925.6
2018-11-11T02:32:09.035Z,925.6
2018-11-11T02:32:21.563Z,925.58
2018-11-11T02:32:34.048Z,925.59
2018-11-11T02:32:46.608Z,925.61
2018-11-11T02:32:59.148Z,925.58
2018-11-11T02:33:11.688Z,925.61
2018-11-11T02:33:24.665Z,925.63
2018-11-11T02:33:36.755Z,925.56
2018-11-11T02:33:49.755Z,925.6
2018-11-11T02:34:02.700Z,925.6
2018-11-11T02:34:15.229Z,925.59
2018-11-11T02:34:28.212Z,925.6
2018-11-11T02:34:41.403Z,925.59
2018-11-11T02:34:54.443Z,925.56
2018-11-11T02:35:07.429Z,925.61
2018-11-11T02:35:20.452Z,925.61
2018-11-11T02:35:32.996Z,925.62
2018-11-11T02:35:45.955Z,925.59
2018-11-11T02:35:58.482Z,925.6
2018-11-11T02:36:10.955Z,925.61
2018-11-11T02:36:23.899Z,925.61
2018-11-11T02:36:36.026Z,925.57
2018-11-11T02:36:48.089Z,925.59
2018-11-11T02:37:00.669Z,925.57
2018-11-11T02:37:13.936Z,925.57
2018-11-11T02:37:26.893Z,925.61
2018-11-11T02:37:40.624Z,925.56
2018-11-11T02:37:54.120Z,925.62
2018-11-11T02:38:07.162Z,925.6
2018-11-11T02:38:20.167Z,925.63